Time;durP1;ratioP1;P1;durP2;ratioP2;P2;SDS_P1;SDS_P2;PMS_P1;PMS_P2;Temp;Humidity;BMP_temperature;BMP_pressure;BME280_temperature;BME280_humidity;BME280_pressure;Samples;Min_cycle;Max_cycle;Signal;HPM_P1;HPM_P2
2024/02/18 00:01:41;;;;;;;8.33;6.17;;;7.00;20.40;;;;;;4992693;28;20178;-68
2024/02/18 00:04:07;;;;;;;9.57;7.10;;;7.10;19.80;;;;;;4992678;28;20426;-68
2024/02/18 00:06:32;;;;;;;11.00;7.10;;;7.10;19.90;;;;;;4992678;28;20989;-68
2024/02/18 00:08:59;;;;;;;8.57;6.57;;;7.10;19.00;;;;;;4992736;28;20188;-68
2024/02/18 00:11:24;;;;;;;8.07;6.10;;;7.10;18.90;;;;;;4992596;28;20171;-68
2024/02/18 00:13:50;;;;;;;7.50;5.53;;;7.10;18.90;;;;;;4992584;28;21022;-68
2024/02/18 00:16:16;;;;;;;9.63;6.43;;;7.10;19.50;;;;;;4992774;28;20509;-68
2024/02/18 00:18:41;;;;;;;7.40;6.13;;;7.10;19.00;;;;;;4992535;28;20208;-68
2024/02/18 00:21:07;;;;;;;9.10;7.57;;;7.10;19.40;;;;;;4992730;28;20249;-69
2024/02/18 00:23:32;;;;;;;8.60;6.80;;;7.10;19.60;;;;;;4992376;28;20229;-68
2024/02/18 00:25:59;;;;;;;8.73;6.80;;;7.10;20.10;;;;;;4990882;28;20592;-68
2024/02/18 00:28:25;;;;;;;8.70;6.50;;;7.10;19.90;;;;;;4992235;28;20598;-68
2024/02/18 00:30:50;;;;;;;7.93;6.27;;;7.10;20.60;;;;;;4992273;28;20415;-66
2024/02/18 00:33:19;;;;;;;9.33;6.47;;;7.20;20.10;;;;;;4992138;28;20427;-68
2024/02/18 00:35:44;;;;;;;8.47;6.00;;;7.20;19.50;;;;;;4992201;28;20189;-68
2024/02/18 00:38:10;;;;;;;6.70;5.93;;;7.30;19.10;;;;;;4991234;28;20416;-68
2024/02/18 00:40:36;;;;;;;7.50;5.70;;;7.30;17.80;;;;;;4991876;28;20178;-67
2024/02/18 00:43:02;;;;;;;10.20;6.87;;;7.30;18.30;;;;;;4990889;28;20256;-68
2024/02/18 00:45:27;;;;;;;12.47;7.40;;;7.40;18.30;;;;;;4992025;28;20606;-68
2024/02/18 00:47:53;;;;;;;9.27;7.07;;;7.40;17.40;;;;;;4992126;28;20457;-68
2024/02/18 00:50:18;;;;;;;13.50;6.83;;;7.40;17.50;;;;;;4991724;28;20205;-68
2024/02/18 00:52:44;;;;;;;9.33;6.40;;;7.40;17.40;;;;;;4992449;28;20210;-68
2024/02/18 00:55:09;;;;;;;8.00;5.90;;;7.40;18.40;;;;;;4993387;28;20205;-68
2024/02/18 00:57:35;;;;;;;7.97;5.97;;;7.40;17.90;;;;;;4991874;28;20197;-69
2024/02/18 01:00:01;;;;;;;9.17;6.40;;;7.40;17.40;;;;;;4991438;28;20181;-69
2024/02/18 01:02:30;;;;;;;7.60;6.53;;;7.40;18.30;;;;;;4992146;28;20218;-68
2024/02/18 01:04:58;;;;;;;8.67;6.57;;;7.50;17.80;;;;;;4991737;28;20264;-68
2024/02/18 01:07:24;;;;;;;11.90;7.30;;;7.50;17.50;;;;;;4991430;28;20421;-68
2024/02/18 01:09:50;;;;;;;8.83;6.27;;;7.50;17.50;;;;;;4991418;28;20418;-68
2024/02/18 01:12:16;;;;;;;9.37;6.63;;;7.50;17.50;;;;;;4991693;28;20241;-68
2024/02/18 01:14:43;;;;;;;7.47;5.60;;;7.40;17.10;;;;;;4991653;28;20422;-68
2024/02/18 01:17:09;;;;;;;7.33;5.30;;;7.50;16.80;;;;;;4991614;28;20793;-68
2024/02/18 01:19:34;;;;;;;8.30;6.03;;;7.50;17.50;;;;;;4991428;28;20410;-69
2024/02/18 01:22:00;;;;;;;11.10;6.30;;;7.60;16.80;;;;;;4991859;28;20736;-68
2024/02/18 01:24:25;;;;;;;7.60;6.30;;;7.60;15.50;;;;;;4990288;28;20175;-68
2024/02/18 01:26:51;;;;;;;12.77;8.67;;;7.60;15.40;;;;;;4991397;28;20234;-67
2024/02/18 01:29:16;;;;;;;7.70;5.77;;;7.60;15.00;;;;;;4991175;28;20237;-67
2024/02/18 01:31:42;;;;;;;8.40;5.67;;;7.60;15.40;;;;;;4991212;28;20586;-67
2024/02/18 01:34:08;;;;;;;9.50;6.80;;;7.70;15.60;;;;;;4991521;28;20178;-67
2024/02/18 01:36:34;;;;;;;8.83;6.70;;;7.60;15.60;;;;;;4991457;28;20524;-68
2024/02/18 01:38:59;;;;;;;7.23;5.47;;;7.60;15.60;;;;;;4991291;28;20887;-68
2024/02/18 01:41:25;;;;;;;8.20;5.77;;;7.70;15.60;;;;;;4991368;28;20557;-68
2024/02/18 01:43:51;;;;;;;8.70;5.60;;;7.70;15.70;;;;;;4991224;28;20392;-68
2024/02/18 01:46:16;;;;;;;6.73;5.97;;;7.60;15.60;;;;;;4991124;28;20602;-67
2024/02/18 01:48:42;;;;;;;9.20;5.70;;;7.60;15.80;;;;;;4991102;28;20501;-67
2024/02/18 01:51:08;;;;;;;7.90;6.20;;;7.50;16.40;;;;;;4995154;28;20220;-68
2024/02/18 01:53:35;;;;;;;8.97;6.80;;;7.60;17.30;;;;;;4995426;28;20213;-68
2024/02/18 01:56:02;;;;;;;7.20;6.40;;;7.50;16.40;;;;;;4995174;28;20181;-68
2024/02/18 01:58:28;;;;;;;9.50;5.97;;;7.50;16.80;;;;;;4993556;28;20769;-69
2024/02/18 02:00:54;;;;;;;8.47;6.13;;;7.40;17.40;;;;;;4994987;28;20424;-69
2024/02/18 02:03:20;;;;;;;8.00;5.40;;;7.30;17.40;;;;;;4995034;28;20216;-69
2024/02/18 02:05:47;;;;;;;10.33;6.77;;;7.30;18.30;;;;;;4994859;28;20632;-69
2024/02/18 02:08:13;;;;;;;10.20;6.63;;;7.30;18.40;;;;;;4994711;28;20798;-69
2024/02/18 02:10:39;;;;;;;8.80;6.80;;;7.40;17.60;;;;;;4994860;28;20442;-69
2024/02/18 02:13:07;;;;;;;6.97;5.50;;;7.40;17.40;;;;;;4994779;28;20284;-69
2024/02/18 02:15:33;;;;;;;11.40;5.40;;;7.40;17.40;;;;;;4994731;28;20622;-68
2024/02/18 02:17:59;;;;;;;11.10;6.43;;;7.40;17.40;;;;;;4994703;28;20503;-68
2024/02/18 02:20:24;;;;;;;7.17;5.90;;;7.40;17.40;;;;;;4994267;28;20837;-68
2024/02/18 02:22:50;;;;;;;9.43;6.60;;;7.30;17.40;;;;;;4994441;28;20662;-69
2024/02/18 02:25:16;;;;;;;9.70;6.40;;;7.30;17.40;;;;;;4994505;28;20206;-68
2024/02/18 02:27:44;;;;;;;8.70;6.50;;;7.20;17.30;;;;;;4994770;28;20484;-69
2024/02/18 02:30:10;;;;;;;7.93;6.07;;;7.20;18.40;;;;;;4994262;28;20228;-69
2024/02/18 02:32:35;;;;;;;8.87;7.13;;;7.10;19.20;;;;;;4994438;28;21012;-69
2024/02/18 02:35:02;;;;;;;8.47;6.47;;;7.00;20.00;;;;;;4994465;28;20547;-69
2024/02/18 02:37:29;;;;;;;9.63;6.50;;;7.00;20.60;;;;;;4994573;28;20185;-68
2024/02/18 02:39:54;;;;;;;10.20;7.47;;;6.90;22.00;;;;;;4994123;28;20416;-68
2024/02/18 02:42:20;;;;;;;8.63;6.83;;;6.80;22.50;;;;;;4994207;28;21192;-68
2024/02/18 02:44:46;;;;;;;12.43;6.87;;;6.80;22.40;;;;;;4994278;28;20196;-69
2024/02/18 02:47:11;;;;;;;10.20;6.50;;;6.70;23.00;;;;;;4994599;28;20216;-68
2024/02/18 02:49:37;;;;;;;10.57;6.83;;;6.70;22.30;;;;;;4993953;28;20172;-69
2024/02/18 02:52:03;;;;;;;11.57;6.97;;;6.60;22.50;;;;;;4993981;28;20209;-69
2024/02/18 02:54:28;;;;;;;8.37;6.20;;;6.60;22.90;;;;;;4992809;28;20189;-68
2024/02/18 02:56:54;;;;;;;8.30;6.30;;;6.50;23.20;;;;;;4994068;28;20179;-68
2024/02/18 02:59:19;;;;;;;11.67;7.60;;;6.40;23.00;;;;;;4994034;28;20203;-69
2024/02/18 03:01:45;;;;;;;8.70;6.57;;;6.30;23.10;;;;;;4992945;28;20522;-67
2024/02/18 03:04:12;;;;;;;9.47;7.07;;;6.20;23.00;;;;;;4993869;28;20423;-69
2024/02/18 03:06:38;;;;;;;6.80;6.07;;;6.10;23.80;;;;;;4994085;28;20181;-69
2024/02/18 03:09:03;;;;;;;8.40;6.97;;;6.00;24.90;;;;;;4993838;28;20765;-69
2024/02/18 03:11:29;;;;;;;8.13;5.93;;;6.00;25.00;;;;;;4976315;28;20689;-68
2024/02/18 03:13:55;;;;;;;7.23;5.60;;;5.80;25.40;;;;;;4993797;28;20327;-68
2024/02/18 03:16:21;;;;;;;11.37;6.40;;;5.80;26.10;;;;;;4993789;28;20192;-68
2024/02/18 03:18:46;;;;;;;7.90;5.20;;;5.70;26.60;;;;;;4976001;28;20189;-68
2024/02/18 03:21:12;;;;;;;5.47;4.40;;;5.60;26.30;;;;;;4993702;28;20423;-69
2024/02/18 03:23:38;;;;;;;8.60;5.33;;;5.50;27.10;;;;;;4993862;28;20232;-68
2024/02/18 03:26:03;;;;;;;8.63;6.50;;;5.40;28.80;;;;;;4993725;28;20665;-68
2024/02/18 03:28:29;;;;;;;8.57;4.07;;;5.30;28.60;;;;;;4993535;28;20192;-69
2024/02/18 03:30:55;;;;;;;8.77;5.43;;;5.30;29.70;;;;;;4993646;28;20435;-69
2024/02/18 03:33:20;;;;;;;7.20;5.47;;;5.20;28.90;;;;;;4993594;28;20220;-69
2024/02/18 03:35:46;;;;;;;8.27;5.40;;;5.20;29.10;;;;;;4993500;28;20269;-69
2024/02/18 03:38:12;;;;;;;7.67;6.03;;;5.10;29.50;;;;;;4993256;28;20276;-68
2024/02/18 03:40:39;;;;;;;9.20;5.20;;;5.00;29.60;;;;;;4993370;28;20777;-69
2024/02/18 03:43:05;;;;;;;9.40;5.60;;;5.00;30.50;;;;;;4993416;28;20745;-68
2024/02/18 03:45:31;;;;;;;7.40;5.77;;;4.90;29.80;;;;;;4993591;28;20876;-68
2024/02/18 03:47:56;;;;;;;8.10;6.67;;;4.80;32.10;;;;;;4993093;28;20502;-68
2024/02/18 03:50:22;;;;;;;8.00;6.77;;;4.70;32.50;;;;;;4992947;28;20234;-69
2024/02/18 03:52:48;;;;;;;7.70;6.23;;;4.70;31.80;;;;;;4992925;28;20226;-70
2024/02/18 03:55:15;;;;;;;10.83;5.83;;;4.70;32.40;;;;;;4992968;28;20253;-68
2024/02/18 03:57:41;;;;;;;10.00;7.73;;;4.60;32.40;;;;;;4992993;28;20183;-69
2024/02/18 04:00:09;;;;;;;7.67;6.47;;;4.60;32.00;;;;;;4992766;28;20419;-69
2024/02/18 04:02:36;;;;;;;10.57;6.60;;;4.50;33.60;;;;;;4992806;28;20812;-68
2024/02/18 04:05:03;;;;;;;7.65;6.30;;;4.40;33.00;;;;;;4992972;28;20239;-68
2024/02/18 04:07:29;;;;;;;8.83;7.40;;;4.40;33.30;;;;;;4992933;28;20187;-68
2024/02/18 04:09:55;;;;;;;8.47;6.40;;;4.30;34.40;;;;;;4992519;28;20828;-69
2024/02/18 04:12:20;;;;;;;7.27;6.53;;;4.30;33.70;;;;;;4992996;28;20435;-69
2024/02/18 04:14:46;;;;;;;10.23;7.33;;;4.30;34.20;;;;;;4992481;28;20177;-69
2024/02/18 04:17:11;;;;;;;11.30;7.90;;;4.20;34.10;;;;;;4992522;28;20190;-69
2024/02/18 04:19:37;;;;;;;10.30;7.17;;;4.10;34.60;;;;;;4992439;28;20181;-69
2024/02/18 04:22:03;;;;;;;7.27;6.20;;;4.10;35.00;;;;;;4992776;28;20192;-68
2024/02/18 04:24:28;;;;;;;8.40;6.70;;;4.00;35.70;;;;;;4992465;28;20183;-68
2024/02/18 04:26:54;;;;;;;13.17;6.50;;;4.10;34.60;;;;;;4992645;28;20182;-68
2024/02/18 04:29:19;;;;;;;9.33;5.90;;;4.00;36.10;;;;;;4992477;28;20178;-68
2024/02/18 04:31:45;;;;;;;9.43;7.30;;;4.00;35.40;;;;;;4992215;28;20189;-68
2024/02/18 04:34:10;;;;;;;7.73;6.23;;;3.90;36.30;;;;;;4992377;28;20183;-69
2024/02/18 04:36:36;;;;;;;13.77;6.80;;;4.00;37.10;;;;;;4990980;28;20294;-69
2024/02/18 04:39:02;;;;;;;8.37;6.70;;;4.00;37.30;;;;;;4991960;28;20192;-68
2024/02/18 04:41:27;;;;;;;10.18;7.53;;;4.10;37.40;;;;;;4992435;28;20245;-69
2024/02/18 04:43:53;;;;;;;7.63;6.50;;;4.10;37.40;;;;;;4992273;28;20294;-69
2024/02/18 04:46:18;;;;;;;9.47;7.60;;;4.20;37.50;;;;;;4992135;28;20796;-69
2024/02/18 04:48:44;;;;;;;10.83;7.50;;;4.20;37.50;;;;;;4992010;28;20172;-68
2024/02/18 04:51:09;;;;;;;8.33;5.63;;;4.10;37.40;;;;;;4992399;28;20275;-69
2024/02/18 04:53:35;;;;;;;9.80;6.90;;;4.20;37.50;;;;;;4990945;28;20243;-70
2024/02/18 04:56:00;;;;;;;8.63;6.97;;;4.20;37.50;;;;;;4992556;28;20557;-69
2024/02/18 04:58:26;;;;;;;13.23;8.60;;;4.20;38.30;;;;;;4992542;28;20187;-68
2024/02/18 05:00:51;;;;;;;9.53;7.57;;;4.20;37.90;;;;;;4992214;28;20188;-69
2024/02/18 05:03:17;;;;;;;10.60;8.07;;;4.20;39.10;;;;;;4992015;28;20262;-68
2024/02/18 05:05:43;;;;;;;10.63;8.80;;;4.20;39.00;;;;;;4992276;28;20260;-69
2024/02/18 05:08:08;;;;;;;11.10;8.73;;;4.30;39.50;;;;;;4992112;28;20180;-68
2024/02/18 05:10:36;;;;;;;9.37;7.80;;;4.40;40.50;;;;;;4992020;28;20825;-70
2024/02/18 05:13:01;;;;;;;11.93;8.55;;;4.40;40.70;;;;;;4991986;28;20228;-70
2024/02/18 05:15:27;;;;;;;10.13;8.93;;;4.50;40.70;;;;;;4991929;28;20187;-69
2024/02/18 05:17:52;;;;;;;10.73;9.00;;;4.50;40.50;;;;;;4993213;28;20193;-69
2024/02/18 05:20:18;;;;;;;11.83;8.83;;;4.50;40.40;;;;;;4992643;28;20182;-69
2024/02/18 05:22:43;;;;;;;9.70;7.60;;;4.50;40.90;;;;;;4992745;28;20541;-69
2024/02/18 05:25:09;;;;;;;11.23;8.50;;;4.50;40.00;;;;;;4991752;28;20238;-68
2024/02/18 05:27:35;;;;;;;10.00;8.27;;;4.50;40.30;;;;;;4992212;28;20175;-69
2024/02/18 05:30:00;;;;;;;11.23;7.97;;;4.40;40.00;;;;;;4991196;28;20593;-69
2024/02/18 05:32:26;;;;;;;12.33;10.00;;;4.40;39.60;;;;;;4991587;28;20663;-69
2024/02/18 05:34:51;;;;;;;11.17;8.57;;;4.40;40.50;;;;;;4991675;28;20180;-68
2024/02/18 05:37:17;;;;;;;9.80;8.30;;;4.40;40.40;;;;;;4991434;28;20658;-68
2024/02/18 05:39:42;;;;;;;12.00;9.07;;;4.40;41.20;;;;;;4991297;28;20250;-68
2024/02/18 05:42:08;;;;;;;11.67;9.20;;;4.30;40.30;;;;;;4991307;28;20706;-69
2024/02/18 05:44:33;;;;;;;12.07;9.50;;;4.30;40.50;;;;;;4991052;28;20182;-69
2024/02/18 05:46:59;;;;;;;10.10;7.70;;;4.40;40.70;;;;;;4991332;28;20541;-70
2024/02/18 05:49:25;;;;;;;12.43;9.20;;;4.30;39.60;;;;;;4991252;28;20681;-70
2024/02/18 05:51:52;;;;;;;12.37;9.23;;;4.30;39.50;;;;;;4990883;28;20652;-68
2024/02/18 05:54:20;;;;;;;10.83;9.30;;;4.30;39.20;;;;;;4993570;28;20179;-68
2024/02/18 05:56:46;;;;;;;9.00;7.93;;;4.30;39.00;;;;;;4993223;28;20484;-69
2024/02/18 05:59:11;;;;;;;11.45;10.10;;;4.20;38.90;;;;;;4991465;28;20417;-69
2024/02/18 06:01:37;;;;;;;10.57;9.30;;;4.20;38.70;;;;;;4990947;28;20182;-70
2024/02/18 06:04:03;;;;;;;14.30;9.80;;;4.20;38.80;;;;;;4991541;28;20555;-69
2024/02/18 06:06:29;;;;;;;13.63;9.30;;;4.20;39.20;;;;;;4991125;28;20203;-69
2024/02/18 06:08:55;;;;;;;12.88;8.75;;;4.20;39.20;;;;;;4990979;28;20198;-69
2024/02/18 06:11:20;;;;;;;14.93;9.90;;;4.20;39.50;;;;;;4991389;28;20208;-69
2024/02/18 06:13:46;;;;;;;12.90;9.80;;;4.20;37.60;;;;;;4991233;28;20200;-69
2024/02/18 06:16:12;;;;;;;12.03;9.80;;;4.20;38.40;;;;;;4991306;28;20172;-68
2024/02/18 06:18:38;;;;;;;12.43;9.85;;;4.30;37.50;;;;;;4990907;28;20269;-69
2024/02/18 06:21:04;;;;;;;12.27;8.83;;;4.30;37.00;;;;;;4991290;28;20216;-68
2024/02/18 06:23:30;;;;;;;12.70;9.25;;;4.30;36.00;;;;;;4991028;28;20203;-69
2024/02/18 06:25:56;;;;;;;13.23;7.73;;;4.20;35.80;;;;;;4990910;28;20283;-69
2024/02/18 06:28:22;;;;;;;16.17;9.13;;;4.20;35.10;;;;;;4991080;28;20298;-68
2024/02/18 06:30:48;;;;;;;12.20;9.45;;;4.20;35.00;;;;;;4973704;28;20187;-68
2024/02/18 06:33:13;;;;;;;10.90;7.53;;;4.10;34.60;;;;;;4990085;28;20199;-70
2024/02/18 06:35:39;;;;;;;11.40;9.30;;;4.10;35.00;;;;;;4991492;28;20258;-69
2024/02/18 06:38:05;;;;;;;11.37;7.90;;;4.10;35.00;;;;;;4994721;28;20236;-69
2024/02/18 06:40:30;;;;;;;12.47;8.73;;;4.10;35.90;;;;;;4994238;28;20532;-69
2024/02/18 06:42:56;;;;;;;13.67;9.47;;;4.10;34.90;;;;;;4994408;28;20209;-69
2024/02/18 06:45:21;;;;;;;22.30;11.30;;;4.10;34.70;;;;;;4994345;28;20211;-68
2024/02/18 06:47:47;;;;;;;10.90;8.20;;;4.10;34.20;;;;;;4994477;28;20175;-69
2024/02/18 06:50:14;;;;;;;12.67;10.30;;;4.20;34.10;;;;;;4994233;28;20165;-69
2024/02/18 06:52:39;;;;;;;16.30;8.48;;;4.20;33.80;;;;;;4994230;28;21024;-68
2024/02/18 06:55:05;;;;;;;12.33;9.23;;;4.20;32.30;;;;;;4994379;28;20267;-69
2024/02/18 06:57:31;;;;;;;11.65;8.32;;;4.20;32.30;;;;;;4994145;28;20191;-68
2024/02/18 06:59:58;;;;;;;12.43;8.55;;;4.20;33.20;;;;;;4994579;28;20192;-69
2024/02/18 07:02:23;;;;;;;11.73;8.70;;;4.20;32.90;;;;;;4994559;28;20248;-68
2024/02/18 07:04:49;;;;;;;11.50;8.27;;;4.20;33.20;;;;;;4994125;28;20227;-68
2024/02/18 07:07:15;;;;;;;14.57;8.60;;;4.20;34.50;;;;;;4994359;28;20191;-68
2024/02/18 07:09:42;;;;;;;16.67;10.70;;;4.20;33.00;;;;;;4993839;28;20187;-69
2024/02/18 07:12:08;;;;;;;9.48;8.35;;;4.30;33.00;;;;;;4993873;28;20543;-68
2024/02/18 07:14:34;;;;;;;10.68;9.05;;;4.30;33.20;;;;;;4996325;28;20188;-68
2024/02/18 07:17:00;;;;;;;14.37;9.17;;;4.40;32.20;;;;;;4993734;28;20185;-68
2024/02/18 07:19:25;;;;;;;13.00;9.50;;;4.30;29.50;;;;;;4993746;28;20195;-69
2024/02/18 07:21:51;;;;;;;10.20;7.23;;;4.30;29.60;;;;;;4993585;28;20226;-68
2024/02/18 07:24:17;;;;;;;11.50;8.60;;;4.30;29.50;;;;;;4993777;28;20175;-68
2024/02/18 07:26:43;;;;;;;10.97;7.30;;;4.40;28.70;;;;;;4993784;28;20468;-68
2024/02/18 07:29:08;;;;;;;12.10;9.70;;;4.40;28.00;;;;;;4975996;28;20557;-68
2024/02/18 07:31:36;;;;;;;13.00;8.53;;;4.50;27.50;;;;;;4993589;28;20410;-68
2024/02/18 07:34:04;;;;;;;10.23;6.72;;;4.50;28.10;;;;;;4994147;28;20178;-69
2024/02/18 07:36:30;;;;;;;11.30;8.43;;;4.50;27.90;;;;;;4994012;28;20180;-67
2024/02/18 07:38:56;;;;;;;11.37;7.40;;;4.60;27.20;;;;;;4975752;28;20946;-67
2024/02/18 07:41:23;;;;;;;13.27;10.37;;;4.70;26.40;;;;;;4993325;28;20418;-69
2024/02/18 07:43:49;;;;;;;10.05;7.82;;;4.70;26.10;;;;;;4993701;28;20314;-68
2024/02/18 07:46:15;;;;;;;10.37;7.40;;;4.80;26.80;;;;;;4993494;28;20300;-69
2024/02/18 07:48:40;;;;;;;9.73;6.83;;;4.90;26.90;;;;;;4992847;28;20579;-69
2024/02/18 07:51:06;;;;;;;11.33;9.37;;;5.00;26.60;;;;;;4993538;28;20656;-68
2024/02/18 07:53:31;;;;;;;12.03;8.83;;;5.10;25.60;;;;;;4993370;28;20651;-68
2024/02/18 07:55:57;;;;;;;11.50;8.00;;;5.20;25.80;;;;;;4993164;28;20179;-68
2024/02/18 07:58:22;;;;;;;11.33;7.70;;;5.30;25.20;;;;;;4992753;28;20283;-69
2024/02/18 08:00:48;;;;;;;10.40;7.87;;;5.50;25.70;;;;;;4993296;28;20207;-69
2024/02/18 08:03:13;;;;;;;9.80;7.03;;;5.60;24.70;;;;;;4992969;28;20217;-69
2024/02/18 08:05:41;;;;;;;10.80;8.13;;;5.70;23.80;;;;;;4992946;28;20699;-68
2024/02/18 08:08:07;;;;;;;11.07;8.50;;;5.80;21.80;;;;;;4993060;28;20201;-69
2024/02/18 08:10:32;;;;;;;11.80;7.57;;;5.90;21.50;;;;;;4992716;28;20415;-69
2024/02/18 08:12:58;;;;;;;9.90;6.80;;;6.00;20.30;;;;;;4992826;28;20262;-70
2024/02/18 08:15:24;;;;;;;11.17;9.00;;;6.20;17.30;;;;;;4992812;28;20546;-69
2024/02/18 08:17:50;;;;;;;7.63;6.83;;;6.30;16.70;;;;;;4991359;28;20197;-68
2024/02/18 08:20:15;;;;;;;9.57;8.00;;;6.40;18.60;;;;;;4992096;28;20875;-68
2024/02/18 08:22:41;;;;;;;10.90;7.77;;;6.50;17.50;;;;;;4992571;28;20200;-69
2024/02/18 08:25:07;;;;;;;10.77;8.60;;;6.70;16.00;;;;;;4992593;28;20240;-69
2024/02/18 08:27:32;;;;;;;10.80;8.93;;;6.90;13.50;;;;;;4992201;28;20176;-68
2024/02/18 08:29:58;;;;;;;12.17;8.00;;;7.00;13.80;;;;;;4992114;28;20504;-68
2024/02/18 08:32:24;;;;;;;10.77;7.63;;;7.00;14.00;;;;;;4992236;28;20261;-68
2024/02/18 08:34:49;;;;;;;10.53;8.87;;;7.20;14.60;;;;;;4992306;28;20260;-69
2024/02/18 08:37:15;;;;;;;11.17;8.77;;;7.20;13.00;;;;;;4992240;28;20186;-67
2024/02/18 08:39:41;;;;;;;9.00;8.03;;;7.30;12.60;;;;;;4991927;28;20197;-69
2024/02/18 08:42:07;;;;;;;8.53;7.60;;;7.40;10.70;;;;;;4992258;28;20202;-69
2024/02/18 08:44:32;;;;;;;17.70;10.53;;;7.40;10.30;;;;;;4992047;28;20557;-69
2024/02/18 08:46:58;;;;;;;12.63;9.00;;;7.50;9.90;;;;;;4992170;28;20621;-69
2024/02/18 08:49:23;;;;;;;12.63;9.00;;;7.60;10.40;;;;;;4991762;28;20189;-69
2024/02/18 08:51:49;;;;;;;9.43;8.00;;;7.80;9.00;;;;;;4990432;28;20202;-68
2024/02/18 08:54:16;;;;;;;10.63;8.27;;;7.90;8.60;;;;;;4991845;28;20301;-68
2024/02/18 08:56:41;;;;;;;10.77;8.77;;;8.20;7.90;;;;;;4991393;28;20498;-69
2024/02/18 08:59:07;;;;;;;8.90;6.77;;;8.30;5.80;;;;;;4990874;28;20274;-69
2024/02/18 09:01:33;;;;;;;10.40;7.67;;;8.40;3.40;;;;;;5022663;28;20206;-68
2024/02/18 09:03:58;;;;;;;8.90;7.07;;;8.60;3.30;;;;;;5028566;28;20217;-69
2024/02/18 09:06:24;;;;;;;11.70;8.87;;;8.70;2.60;;;;;;5010520;28;20492;-69
2024/02/18 09:08:49;;;;;;;13.20;8.87;;;8.90;2.70;;;;;;5008919;28;20195;-68
2024/02/18 09:11:15;;;;;;;12.60;9.67;;;9.00;3.60;;;;;;5011053;28;20180;-67
2024/02/18 09:13:42;;;;;;;12.07;9.10;;;9.00;3.60;;;;;;5012889;28;20215;-70
2024/02/18 09:16:07;;;;;;;10.33;8.87;;;9.30;3.40;;;;;;4992617;28;20192;-69
2024/02/18 09:18:33;;;;;;;12.00;9.30;;;9.50;3.30;;;;;;5009048;28;20430;-69
2024/02/18 09:21:01;;;;;;;9.37;7.90;;;9.80;1.30;;;;;;5010921;28;20192;-69
2024/02/18 09:23:27;;;;;;;13.07;8.93;;;10.00;1.00;;;;;;5010932;28;20207;-69
2024/02/18 09:25:52;;;;;;;14.30;9.10;;;10.20;1.00;;;;;;5010757;28;20485;-69
2024/02/18 09:28:18;;;;;;;12.00;8.37;;;10.40;1.00;;;;;;5010537;28;20187;-69
2024/02/18 09:30:44;;;;;;;8.93;8.00;;;10.40;1.00;;;;;;5010117;28;20175;-69
2024/02/18 09:33:11;;;;;;;10.90;8.07;;;10.60;1.00;;;;;;5010599;28;20576;-68
2024/02/18 09:35:36;;;;;;;10.10;8.20;;;10.60;1.00;;;;;;5027988;28;20178;-69
2024/02/18 09:38:08;;;;;;;9.70;7.13;;;10.60;1.00;;;;;;5018002;28;20885;-69
2024/02/18 09:40:35;;;;;;;9.57;8.57;;;10.70;1.00;;;;;;5011091;28;20275;-68
2024/02/18 09:43:00;;;;;;;11.67;8.90;;;10.90;1.00;;;;;;5010539;28;20965;-69
2024/02/18 09:45:29;;;;;;;10.80;8.07;;;11.00;1.00;;;;;;5010635;28;20516;-69
2024/02/18 09:47:56;;;;;;;9.17;8.20;;;11.20;1.00;;;;;;4998438;28;20200;-69
2024/02/18 09:50:22;;;;;;;11.37;8.50;;;11.30;1.00;;;;;;4990642;28;20431;-70
2024/02/18 09:52:48;;;;;;;12.33;9.70;;;11.30;1.00;;;;;;5000258;28;20844;-70
2024/02/18 09:55:15;;;;;;;11.27;9.60;;;11.50;1.00;;;;;;5011269;28;20180;-70
2024/02/18 09:57:40;;;;;;;11.43;8.10;;;11.60;1.00;;;;;;5010309;28;20423;-69
2024/02/18 10:00:10;;;;;;;10.03;8.43;;;11.60;1.00;;;;;;5009801;28;20449;-69
2024/02/18 10:02:37;;;;;;;11.80;9.67;;;11.70;1.00;;;;;;5010142;28;20200;-69
2024/02/18 10:05:06;;;;;;;9.90;8.30;;;11.80;1.00;;;;;;5020116;28;20576;-69
2024/02/18 10:07:32;;;;;;;9.10;7.60;;;12.00;1.00;;;;;;5028307;28;20430;-68
2024/02/18 10:10:01;;;;;;;12.57;7.30;;;12.10;1.00;;;;;;5012427;28;20418;-68
2024/02/18 10:12:29;;;;;;;11.87;8.30;;;12.50;1.00;;;;;;5028167;28;20446;-68
2024/02/18 10:15:03;;;;;;;9.53;7.13;;;12.60;1.00;;;;;;5033638;28;20441;-69
2024/02/18 10:17:29;;;;;;;10.77;7.77;;;12.90;1.00;;;;;;5034748;28;21029;-68
2024/02/18 10:19:55;;;;;;;9.37;8.00;;;13.10;1.00;;;;;;5033704;28;20421;-68
2024/02/18 10:22:26;;;;;;;9.13;7.60;;;13.40;1.00;;;;;;5033950;28;20808;-68
2024/02/18 10:24:53;;;;;;;8.53;7.43;;;13.60;1.00;;;;;;5017972;28;20709;-69
2024/02/18 10:27:19;;;;;;;11.07;8.03;;;13.70;1.00;;;;;;5013930;28;20410;-70
2024/02/18 10:29:48;;;;;;;9.23;7.80;;;13.90;1.00;;;;;;5013834;28;20494;-68
2024/02/18 10:32:18;;;;;;;10.20;7.60;;;14.00;1.00;;;;;;5014330;28;20204;-69
2024/02/18 10:34:47;;;;;;;7.30;6.50;;;13.70;1.00;;;;;;5014130;28;20504;-69
2024/02/18 10:37:38;;;;;;;11.70;8.43;;;13.60;1.00;;;;;;5014106;28;20418;-68
2024/02/18 10:40:19;;;;;;;14.53;9.20;;;13.60;1.00;;;;;;5013753;28;20569;-69
2024/02/18 10:42:54;;;;;;;7.67;6.83;;;13.80;1.00;;;;;;5013904;28;21025;-70
2024/02/18 10:45:21;;;;;;;9.90;8.00;;;13.80;1.00;;;;;;5013610;28;20969;-68
2024/02/18 10:47:51;;;;;;;8.70;7.23;;;13.90;1.00;;;;;;5013757;28;20418;-68
2024/02/18 10:50:17;;;;;;;8.03;6.60;;;13.90;1.00;;;;;;5014624;28;20411;-69
2024/02/18 10:52:53;;;;;;;8.00;7.20;;;14.00;1.00;;;;;;5015014;28;20549;-69
2024/02/18 10:55:44;;;;;;;8.80;7.90;;;13.80;1.00;;;;;;5013577;28;20237;-69
2024/02/18 10:58:40;;;;;;;8.43;6.40;;;13.90;1.00;;;;;;5013432;28;20719;-68
2024/02/18 11:01:08;;;;;;;20.33;9.53;;;13.80;1.00;;;;;;4985875;28;20948;-68
2024/02/18 11:03:38;;;;;;;9.47;6.40;;;14.00;1.00;;;;;;5032968;28;20456;-68
2024/02/18 11:06:04;;;;;;;8.33;5.93;;;14.00;1.00;;;;;;5033003;28;20510;-69
2024/02/18 11:08:32;;;;;;;8.13;6.73;;;13.90;1.00;;;;;;5034207;28;20413;-71
2024/02/18 11:10:58;;;;;;;7.63;6.50;;;14.10;1.00;;;;;;5035727;28;20531;-76
2024/02/18 11:13:25;;;;;;;8.70;6.47;;;14.20;1.00;;;;;;5035210;28;20529;-69
2024/02/18 11:15:51;;;;;;;13.17;8.43;;;14.20;1.00;;;;;;5034852;28;20822;-70
2024/02/18 11:18:17;;;;;;;15.70;8.30;;;14.40;1.00;;;;;;5033029;28;20424;-70
2024/02/18 11:20:42;;;;;;;8.17;7.33;;;14.40;1.00;;;;;;5033234;28;20504;-70
2024/02/18 11:23:10;;;;;;;8.30;6.50;;;14.20;1.00;;;;;;5032315;28;20203;-69
2024/02/18 11:25:36;;;;;;;8.37;6.97;;;14.30;1.00;;;;;;5018446;28;20211;-70
2024/02/18 11:28:02;;;;;;;7.90;7.10;;;14.60;1.00;;;;;;5013047;28;20423;-70
2024/02/18 11:30:28;;;;;;;8.20;7.40;;;14.80;1.00;;;;;;5012800;28;20429;-68
2024/02/18 11:32:54;;;;;;;11.40;8.37;;;14.80;1.00;;;;;;5014315;28;20442;-68
2024/02/18 11:35:20;;;;;;;10.70;7.13;;;14.80;1.00;;;;;;5013441;28;20671;-69
2024/02/18 11:37:47;;;;;;;10.33;7.20;;;14.90;1.00;;;;;;5013017;28;20506;-69
2024/02/18 11:40:17;;;;;;;8.30;6.87;;;14.80;1.00;;;;;;5018401;28;20196;-68
2024/02/18 11:42:43;;;;;;;6.90;5.50;;;14.90;1.00;;;;;;5012556;28;20789;-69
2024/02/18 11:45:13;;;;;;;9.23;7.10;;;14.90;1.00;;;;;;5012942;28;20492;-68
2024/02/18 11:47:44;;;;;;;8.70;6.60;;;14.80;1.00;;;;;;5002578;28;20427;-68
2024/02/18 11:50:10;;;;;;;9.40;6.93;;;15.20;1.00;;;;;;5003488;28;20426;-70
2024/02/18 11:52:37;;;;;;;6.23;5.60;;;15.20;1.00;;;;;;5013103;28;20450;-68
2024/02/18 11:55:14;;;;;;;6.57;5.63;;;14.70;1.00;;;;;;5032198;28;20209;-68
2024/02/18 11:57:40;;;;;;;7.67;6.17;;;14.90;1.00;;;;;;5032314;28;20429;-69
2024/02/18 12:00:11;;;;;;;8.00;6.93;;;14.70;1.00;;;;;;5031546;28;20489;-69
2024/02/18 12:02:37;;;;;;;7.07;5.47;;;14.90;1.00;;;;;;5031867;28;20442;-69
2024/02/18 12:05:05;;;;;;;7.77;6.23;;;15.20;1.00;;;;;;5029812;28;20957;-69
2024/02/18 12:07:33;;;;;;;6.67;5.97;;;14.90;1.00;;;;;;5031848;28;20520;-69
2024/02/18 12:09:59;;;;;;;6.70;5.73;;;15.00;1.00;;;;;;5013824;28;20936;-69
2024/02/18 12:12:26;;;;;;;8.60;7.33;;;14.80;1.00;;;;;;5031817;28;20529;-67
2024/02/18 12:14:55;;;;;;;8.97;6.50;;;14.90;1.00;;;;;;5031932;28;20266;-68
2024/02/18 12:17:21;;;;;;;8.07;6.77;;;14.50;1.00;;;;;;5031964;28;20905;-69
2024/02/18 12:19:47;;;;;;;7.60;5.90;;;14.50;1.00;;;;;;5031637;28;20428;-69
2024/02/18 12:22:29;;;;;;;11.30;8.33;;;14.50;1.00;;;;;;5013978;28;20513;-69
2024/02/18 12:24:58;;;;;;;9.60;8.13;;;14.50;1.00;;;;;;5031900;28;20219;-68
2024/02/18 12:27:24;;;;;;;6.93;6.20;;;14.60;1.00;;;;;;5031726;28;20451;-70
2024/02/18 12:29:51;;;;;;;7.90;6.37;;;14.80;1.00;;;;;;5031575;28;20410;-69
2024/02/18 12:32:18;;;;;;;6.97;5.87;;;14.80;1.00;;;;;;5031585;28;20496;-69
2024/02/18 12:34:46;;;;;;;8.70;6.77;;;14.70;1.00;;;;;;5030840;28;20410;-71
2024/02/18 12:37:12;;;;;;;8.60;5.90;;;14.70;1.00;;;;;;5031831;28;20414;-70
2024/02/18 12:39:38;;;;;;;8.47;7.13;;;14.80;1.00;;;;;;5031656;28;20406;-69
2024/02/18 12:42:05;;;;;;;7.67;6.03;;;14.80;1.00;;;;;;5031617;28;20433;-69
2024/02/18 12:44:32;;;;;;;8.53;6.53;;;14.80;1.00;;;;;;5031611;28;20444;-70
2024/02/18 12:47:01;;;;;;;6.07;5.33;;;14.70;1.00;;;;;;5031708;28;20468;-70
2024/02/18 12:49:30;;;;;;;6.93;6.10;;;14.90;1.00;;;;;;5031278;28;20406;-69